Terminal Aerodrome Forecast
Issued by NWS

Home | Current Version | Previous Version | Text Only | Print | Product List | Glossary On
Versions: 1 2 3 4 5 6 7 8 9 10 11 12 13 14 15 16 17 18 19 20 21
170
FTUS43 KDTX 250303 AAA
TAFMBS
TAF AMD
KMBS 250303Z 2503/2524 03014KT 4SM -SHRA BR SCT007 BKN018 OVC030
     FM250600 03013KT 4SM -SHRA BR BKN008 OVC012
     FM251000 03011KT 4SM -SHRA BR OVC005
     FM251800 02012KT 4SM -SHRA BR OVC007=

USA.gov is the U.S. government's official web portal to all federal, state and local government web resources and services.